Grand Forks Air Force Base
KRDR : now visible

Airfield :











YOU CAN JOIN US ON...

 
LOGIN :

Register | Disclaimer

   EN    FR    IT 

 









Legend :    VFR   Marginal VFR   IFR   Intensive IFR   Very Intensive IFR
Visi :
Ceiling :
>= 8 km
>= 3000ft
5 to 8 km
1000 to 3000 ft
1500m to 5 km
500 to 1000 ft
800 to 1500m
200 to 500 ft
< 800m
< 200 ft
Symbols :   Thunderstorms  Fog  Heavy snow  Heavy precipitations  Wind > 20 kt






- Airport Elevation : 913 ft


KRDR - Grand Forks Air Force Base

CURRENT METAR :
  • 271756Z 01004KT 4SM -SN OVC013 M10/M13 A3015 RMK CIG 012 RWY17 SLP234 P0000 60000 4/023 T11051133 11104 21111 52002

EXPIRED METARs :
  • 271656Z 35005KT 3SM -SN OVC011 M11/M13 A3015 RMK CIG 005V011 SLP234 P0000 T11071129
  • 271557Z 02004KT 3SM -SN BKN006 OVC012 M11/M13 A3015 RMK SLP234 P0000 T11081129

TAF TAF KRDR
Valid from the 27 at 18:00 until the 29 at 00:00 UTC


271800Z 2718/2824 VRB06KT 6000 -SN OVC013 620159 QNH3012INS
BECMG 2722/2723 VRB06KT 9999 NSW OVC015 620159 QNH3012INS
BECMG 2814/2815 VRB06KT 9999 OVC015 620159 QNH3016INS TXM02/2817Z TNM13/2718Z



MET'MAP, your aeronautical weather chart ! - Copyright ORBIFLY December 2007 - Disclaimer

ORBIFLY MET'MAP TEAM :

Programming & Development : Alexandra Zaïnal
Concept & original design : Baudouin d'Aumeries
Assistance for programming : Marc-Olivier Méhu
Technical & hardware support : Manuel Goepfert

Contact : metmap@orbifly.com




SOURCES & CREDITS :

   NOAA       Earth
Advisory